« Back
NWS Peachtree City, Ga » Text Product » ATL Terminal Aerodrome Forecast

Printer-friendly Version
Current Version              Previous Versions:   1  2  3  4  5  6  7  8  9  

Terminal Aerodrome Forecast

FTUS42 KFFC 281127
KATL 281127Z 2812/2918 08004KT P6SM SCT200
     FM281400 14005KT P6SM FEW025 SCT150
     FM281800 19006KT P6SM FEW040 SCT120
     FM290000 16004KT P6SM BKN120
     FM290800 21003KT 6SM BR SCT025 BKN100
     FM291400 23004KT P6SM SCT025 BKN070=

USA.gov is the U.S. government's official web portal to all federal, state and local government web resources and services.